sensor_id;sensor_type;location;lat;lon;timestamp;pressure;altitude;pressure_sealevel;temperature;humidity
63287;BME280;49410;55.708;37.522;2022-10-16T00:02:23;100627.84;;;5.81;nan
63287;BME280;49410;55.708;37.522;2022-10-16T00:04:48;100628.09;;;5.78;nan
63287;BME280;49410;55.708;37.522;2022-10-16T00:07:14;100642.31;;;5.81;nan
63287;BME280;49410;55.708;37.522;2022-10-16T00:09:39;100640.69;;;5.79;nan
63287;BME280;49410;55.708;37.522;2022-10-16T00:12:05;100637.31;;;5.75;nan
63287;BME280;49410;55.708;37.522;2022-10-16T00:14:32;100644.72;;;5.73;nan
63287;BME280;49410;55.708;37.522;2022-10-16T00:16:57;100618.97;;;5.54;nan
63287;BME280;49410;55.708;37.522;2022-10-16T00:19:23;100647.66;;;5.70;nan
63287;BME280;49410;55.708;37.522;2022-10-16T00:21:48;100644.41;;;5.65;nan
63287;BME280;49410;55.708;37.522;2022-10-16T00:24:14;100656.66;;;5.70;nan
63287;BME280;49410;55.708;37.522;2022-10-16T00:26:39;100658.66;;;5.68;nan
63287;BME280;49410;55.708;37.522;2022-10-16T00:29:06;100645.78;;;5.59;nan
63287;BME280;49410;55.708;37.522;2022-10-16T00:31:31;100642.19;;;5.58;nan
63287;BME280;49410;55.708;37.522;2022-10-16T00:33:57;100654.63;;;5.61;nan
63287;BME280;49410;55.708;37.522;2022-10-16T00:36:24;100649.34;;;5.59;nan
63287;BME280;49410;55.708;37.522;2022-10-16T00:38:52;100653.91;;;5.59;nan
63287;BME280;49410;55.708;37.522;2022-10-16T00:41:21;100653.91;;;5.59;nan
63287;BME280;49410;55.708;37.522;2022-10-16T00:43:48;100661.16;;;5.58;nan
63287;BME280;49410;55.708;37.522;2022-10-16T00:46:26;100662.41;;;5.54;nan
63287;BME280;49410;55.708;37.522;2022-10-16T00:51:25;100668.81;;;5.53;nan
63287;BME280;49410;55.708;37.522;2022-10-16T00:53:51;100655.66;;;5.47;nan
63287;BME280;49410;55.708;37.522;2022-10-16T00:56:17;100654.06;;;5.44;nan
63287;BME280;49410;55.708;37.522;2022-10-16T00:58:43;100651.47;;;5.43;nan
63287;BME280;49410;55.708;37.522;2022-10-16T01:01:09;100673.56;;;5.50;nan
63287;BME280;49410;55.708;37.522;2022-10-16T01:03:36;100670.13;;;5.48;nan
63287;BME280;49410;55.708;37.522;2022-10-16T01:09:06;100663.97;;;5.33;nan
63287;BME280;49410;55.708;37.522;2022-10-16T01:11:47;100672.75;;;5.36;nan
63287;BME280;49410;55.708;37.522;2022-10-16T01:17:15;100674.59;;;5.36;nan
63287;BME280;49410;55.708;37.522;2022-10-16T01:19:51;100679.16;;;5.35;nan
63287;BME280;49410;55.708;37.522;2022-10-16T01:22:20;100667.13;;;5.26;nan
63287;BME280;49410;55.708;37.522;2022-10-16T01:24:53;100642.31;;;5.07;nan
63287;BME280;49410;55.708;37.522;2022-10-16T01:27:30;100684.03;;;5.30;nan
63287;BME280;49410;55.708;37.522;2022-10-16T01:30:06;100676.47;;;5.22;nan
63287;BME280;49410;55.708;37.522;2022-10-16T01:32:40;100673.75;;;5.22;nan
63287;BME280;49410;55.708;37.522;2022-10-16T01:38:29;100674.94;;;5.18;nan
63287;BME280;49410;55.708;37.522;2022-10-16T01:41:01;100680.25;;;5.20;nan
63287;BME280;49410;55.708;37.522;2022-10-16T01:43:32;100692.84;;;5.21;nan
63287;BME280;49410;55.708;37.522;2022-10-16T01:46:00;100677.16;;;5.13;nan
63287;BME280;49410;55.708;37.522;2022-10-16T01:48:26;100681.69;;;5.12;nan
63287;BME280;49410;55.708;37.522;2022-10-16T01:51:04;100687.75;;;5.16;nan
63287;BME280;49410;55.708;37.522;2022-10-16T01:53:31;100682.91;;;5.08;nan
63287;BME280;49410;55.708;37.522;2022-10-16T01:55:59;100678.78;;;5.03;nan
63287;BME280;49410;55.708;37.522;2022-10-16T01:58:27;100698.28;;;5.08;nan
63287;BME280;49410;55.708;37.522;2022-10-16T02:00:56;100697.31;;;5.09;nan
63287;BME280;49410;55.708;37.522;2022-10-16T02:03:22;100680.63;;;5.02;nan
63287;BME280;49410;55.708;37.522;2022-10-16T02:05:53;100685.06;;;5.03;nan
63287;BME280;49410;55.708;37.522;2022-10-16T02:08:22;100698.28;;;5.08;nan
63287;BME280;49410;55.708;37.522;2022-10-16T02:10:50;100683.53;;;4.99;nan
63287;BME280;49410;55.708;37.522;2022-10-16T02:13:33;100704.47;;;5.10;nan
63287;BME280;49410;55.708;37.522;2022-10-16T02:15:59;100689.84;;;5.00;nan
63287;BME280;49410;55.708;37.522;2022-10-16T02:18:25;100690.47;;;5.03;nan
63287;BME280;49410;55.708;37.522;2022-10-16T02:21:26;100696.03;;;5.02;nan
63287;BME280;49410;55.708;37.522;2022-10-16T02:24:11;100684.63;;;4.96;nan
63287;BME280;49410;55.708;37.522;2022-10-16T02:26:52;100698.19;;;4.96;nan
63287;BME280;49410;55.708;37.522;2022-10-16T02:29:25;100691.69;;;4.86;nan
63287;BME280;49410;55.708;37.522;2022-10-16T02:31:58;100698.31;;;4.95;nan
63287;BME280;49410;55.708;37.522;2022-10-16T02:34:27;100706.56;;;4.93;nan
63287;BME280;49410;55.708;37.522;2022-10-16T02:36:54;100704.69;;;4.94;nan
63287;BME280;49410;55.708;37.522;2022-10-16T02:39:20;100707.53;;;4.92;nan
63287;BME280;49410;55.708;37.522;2022-10-16T02:41:47;100704.81;;;4.92;nan
63287;BME280;49410;55.708;37.522;2022-10-16T02:44:12;100692.66;;;4.85;nan
63287;BME280;49410;55.708;37.522;2022-10-16T02:46:38;100707.63;;;4.91;nan
63287;BME280;49410;55.708;37.522;2022-10-16T02:49:04;100703.81;;;4.80;nan
63287;BME280;49410;55.708;37.522;2022-10-16T02:51:29;100702.09;;;4.79;nan
63287;BME280;49410;55.708;37.522;2022-10-16T02:53:55;100697.22;;;4.72;nan
63287;BME280;49410;55.708;37.522;2022-10-16T02:56:20;100703.81;;;4.80;nan
63287;BME280;49410;55.708;37.522;2022-10-16T02:58:46;100715.53;;;4.81;nan
63287;BME280;49410;55.708;37.522;2022-10-16T03:01:11;100710.91;;;4.83;nan
63287;BME280;49410;55.708;37.522;2022-10-16T03:03:38;100714.66;;;4.80;nan
63287;BME280;49410;55.708;37.522;2022-10-16T03:06:04;100704.16;;;4.76;nan
63287;BME280;49410;55.708;37.522;2022-10-16T03:08:29;100709.88;;;4.71;nan
63287;BME280;49410;55.708;37.522;2022-10-16T03:10:55;100712.19;;;4.77;nan
63287;BME280;49410;55.708;37.522;2022-10-16T03:13:20;100719.88;;;4.84;nan
63287;BME280;49410;55.708;37.522;2022-10-16T03:15:46;100716.94;;;4.74;nan
63287;BME280;49410;55.708;37.522;2022-10-16T03:18:11;100710.78;;;4.72;nan
63287;BME280;49410;55.708;37.522;2022-10-16T03:20:37;100726.78;;;4.75;nan
63287;BME280;49410;55.708;37.522;2022-10-16T03:23:03;100724.31;;;4.72;nan
63287;BME280;49410;55.708;37.522;2022-10-16T03:25:29;100686.16;;;4.49;nan
63287;BME280;49410;55.708;37.522;2022-10-16T03:27:54;100729.63;;;4.73;nan
63287;BME280;49410;55.708;37.522;2022-10-16T03:30:20;100731.88;;;4.66;nan
63287;BME280;49410;55.708;37.522;2022-10-16T03:32:46;100720.41;;;4.63;nan
63287;BME280;49410;55.708;37.522;2022-10-16T03:35:12;100730.06;;;4.67;nan
63287;BME280;49410;55.708;37.522;2022-10-16T03:37:37;100723.53;;;4.57;nan
63287;BME280;49410;55.708;37.522;2022-10-16T03:40:03;100730.47;;;4.61;nan
63287;BME280;49410;55.708;37.522;2022-10-16T03:42:29;100730.59;;;4.59;nan
63287;BME280;49410;55.708;37.522;2022-10-16T03:44:54;100729.81;;;4.57;nan
63287;BME280;49410;55.708;37.522;2022-10-16T03:47:20;100733.94;;;4.63;nan
63287;BME280;49410;55.708;37.522;2022-10-16T03:49:48;100734.16;;;4.60;nan
63287;BME280;49410;55.708;37.522;2022-10-16T03:52:14;100725.38;;;4.56;nan
63287;BME280;49410;55.708;37.522;2022-10-16T03:54:39;100721.38;;;4.49;nan
63287;BME280;49410;55.708;37.522;2022-10-16T03:57:05;100721.16;;;4.52;nan
63287;BME280;49410;55.708;37.522;2022-10-16T03:59:30;100717.69;;;4.50;nan
63287;BME280;49410;55.708;37.522;2022-10-16T04:01:56;100736.66;;;4.50;nan
63287;BME280;49410;55.708;37.522;2022-10-16T04:04:21;100728.25;;;4.40;nan
63287;BME280;49410;55.708;37.522;2022-10-16T04:06:47;100722.97;;;4.39;nan
63287;BME280;49410;55.708;37.522;2022-10-16T04:09:12;100734.66;;;4.39;nan
63287;BME280;49410;55.708;37.522;2022-10-16T04:11:38;100726.84;;;4.34;nan
63287;BME280;49410;55.708;37.522;2022-10-16T04:14:04;100735.53;;;4.40;nan
63287;BME280;49410;55.708;37.522;2022-10-16T04:16:29;100732.72;;;4.41;nan
63287;BME280;49410;55.708;37.522;2022-10-16T04:18:55;100723.28;;;4.34;nan
63287;BME280;49410;55.708;37.522;2022-10-16T04:21:20;100733.69;;;4.40;nan
63287;BME280;49410;55.708;37.522;2022-10-16T04:23:46;100722.31;;;4.35;nan
63287;BME280;49410;55.708;37.522;2022-10-16T04:26:11;100739.09;;;4.40;nan
63287;BME280;49410;55.708;37.522;2022-10-16T04:28:37;100730.31;;;4.37;nan
63287;BME280;49410;55.708;37.522;2022-10-16T04:31:06;100729.78;;;4.31;nan
63287;BME280;49410;55.708;37.522;2022-10-16T04:33:32;100748.66;;;4.46;nan
63287;BME280;49410;55.708;37.522;2022-10-16T04:35:58;100737.47;;;4.38;nan
63287;BME280;49410;55.708;37.522;2022-10-16T04:38:25;100744.19;;;4.45;nan
63287;BME280;49410;55.708;37.522;2022-10-16T04:40:50;100758.53;;;4.47;nan
63287;BME280;49410;55.708;37.522;2022-10-16T04:43:16;100741.50;;;4.45;nan
63287;BME280;49410;55.708;37.522;2022-10-16T04:45:42;100750.38;;;4.47;nan
63287;BME280;49410;55.708;37.522;2022-10-16T04:48:07;100736.00;;;4.46;nan
63287;BME280;49410;55.708;37.522;2022-10-16T04:50:33;100755.19;;;4.56;nan
63287;BME280;49410;55.708;37.522;2022-10-16T04:52:58;100742.59;;;4.55;nan
63287;BME280;49410;55.708;37.522;2022-10-16T04:55:24;100747.81;;;4.58;nan
63287;BME280;49410;55.708;37.522;2022-10-16T04:57:50;100753.03;;;4.61;nan
63287;BME280;49410;55.708;37.522;2022-10-16T05:00:15;100765.06;;;4.70;nan
63287;BME280;49410;55.708;37.522;2022-10-16T05:02:41;100741.63;;;4.56;nan
63287;BME280;49410;55.708;37.522;2022-10-16T05:05:06;100758.13;;;4.66;nan
63287;BME280;49410;55.708;37.522;2022-10-16T05:07:32;100753.69;;;4.65;nan
63287;BME280;49410;55.708;37.522;2022-10-16T05:09:58;100763.13;;;4.72;nan
63287;BME280;49410;55.708;37.522;2022-10-16T05:12:23;100761.94;;;4.76;nan
63287;BME280;49410;55.708;37.522;2022-10-16T05:14:49;100749.56;;;4.72;nan
63287;BME280;49410;55.708;37.522;2022-10-16T05:17:14;100757.50;;;4.75;nan
63287;BME280;49410;55.708;37.522;2022-10-16T05:19:39;100769.63;;;4.82;nan
63287;BME280;49410;55.708;37.522;2022-10-16T05:22:05;100764.34;;;4.81;nan
63287;BME280;49410;55.708;37.522;2022-10-16T05:24:30;100773.56;;;4.91;nan
63287;BME280;49410;55.708;37.522;2022-10-16T05:26:56;100760.84;;;4.92;nan
63287;BME280;49410;55.708;37.522;2022-10-16T05:29:22;100763.25;;;4.96;nan
63287;BME280;49410;55.708;37.522;2022-10-16T05:31:50;100774.22;;;5.08;nan
63287;BME280;49410;55.708;37.522;2022-10-16T05:34:16;100774.53;;;5.16;nan
63287;BME280;49410;55.708;37.522;2022-10-16T05:36:42;100788.00;;;5.31;nan
63287;BME280;49410;55.708;37.522;2022-10-16T05:39:07;100759.13;;;5.29;nan
63287;BME280;49410;55.708;37.522;2022-10-16T05:41:33;100761.06;;;5.40;nan
63287;BME280;49410;55.708;37.522;2022-10-16T05:43:58;100779.38;;;5.63;nan
63287;BME280;49410;55.708;37.522;2022-10-16T05:46:24;100763.72;;;5.66;nan
63287;BME280;49410;55.708;37.522;2022-10-16T05:48:52;100783.00;;;5.87;nan
63287;BME280;49410;55.708;37.522;2022-10-16T05:51:18;100766.16;;;5.95;nan
63287;BME280;49410;55.708;37.522;2022-10-16T05:53:43;100782.84;;;6.15;nan
63287;BME280;49410;55.708;37.522;2022-10-16T05:56:10;100786.81;;;6.22;nan
63287;BME280;49410;55.708;37.522;2022-10-16T05:58:38;100785.38;;;6.29;nan
63287;BME280;49410;55.708;37.522;2022-10-16T06:01:16;100775.44;;;6.17;nan
63287;BME280;49410;55.708;37.522;2022-10-16T06:03:43;100789.31;;;6.25;nan
63287;BME280;49410;55.708;37.522;2022-10-16T06:06:13;100789.84;;;6.30;nan
63287;BME280;49410;55.708;37.522;2022-10-16T06:08:40;100774.03;;;6.35;nan
63287;BME280;49410;55.708;37.522;2022-10-16T06:11:10;100776.81;;;6.47;nan
63287;BME280;49410;55.708;37.522;2022-10-16T06:13:36;100777.72;;;6.59;nan
63287;BME280;49410;55.708;37.522;2022-10-16T06:16:02;100782.97;;;6.73;nan
63287;BME280;49410;55.708;37.522;2022-10-16T06:18:28;100778.16;;;6.77;nan
63287;BME280;49410;55.708;37.522;2022-10-16T06:20:55;100773.47;;;6.79;nan
63287;BME280;49410;55.708;37.522;2022-10-16T06:23:21;100786.84;;;6.93;nan
63287;BME280;49410;55.708;37.522;2022-10-16T06:25:46;100786.63;;;7.08;nan
63287;BME280;49410;55.708;37.522;2022-10-16T06:28:13;100779.84;;;7.13;nan
63287;BME280;49410;55.708;37.522;2022-10-16T06:30:39;100800.03;;;7.34;nan
63287;BME280;49410;55.708;37.522;2022-10-16T06:33:04;100797.28;;;7.34;nan
63287;BME280;49410;55.708;37.522;2022-10-16T06:35:30;100810.06;;;7.44;nan
63287;BME280;49410;55.708;37.522;2022-10-16T06:37:57;100793.13;;;7.52;nan
63287;BME280;49410;55.708;37.522;2022-10-16T06:40:22;100797.81;;;7.61;nan
63287;BME280;49410;55.708;37.522;2022-10-16T06:42:48;100785.44;;;7.57;nan
63287;BME280;49410;55.708;37.522;2022-10-16T06:45:13;100789.16;;;7.68;nan
63287;BME280;49410;55.708;37.522;2022-10-16T06:47:39;100797.19;;;7.69;nan
63287;BME280;49410;55.708;37.522;2022-10-16T06:50:05;100796.44;;;7.78;nan
63287;BME280;49410;55.708;37.522;2022-10-16T06:52:33;100804.13;;;7.85;nan
63287;BME280;49410;55.708;37.522;2022-10-16T06:54:59;100794.97;;;7.86;nan
63287;BME280;49410;55.708;37.522;2022-10-16T06:57:25;100797.06;;;7.93;nan
63287;BME280;49410;55.708;37.522;2022-10-16T06:59:51;100802.22;;;8.08;nan
63287;BME280;49410;55.708;37.522;2022-10-16T07:02:16;100799.84;;;8.15;nan
63287;BME280;49410;55.708;37.522;2022-10-16T07:04:42;100794.16;;;8.18;nan
63287;BME280;49410;55.708;37.522;2022-10-16T07:07:07;100805.84;;;8.41;nan
63287;BME280;49410;55.708;37.522;2022-10-16T07:09:32;100795.41;;;8.46;nan
63287;BME280;49410;55.708;37.522;2022-10-16T07:11:58;100796.53;;;8.55;nan
63287;BME280;49410;55.708;37.522;2022-10-16T07:14:23;100808.53;;;8.64;nan
63287;BME280;49410;55.708;37.522;2022-10-16T07:16:49;100801.97;;;8.66;nan
63287;BME280;49410;55.708;37.522;2022-10-16T07:19:15;100797.94;;;8.70;nan
63287;BME280;49410;55.708;37.522;2022-10-16T07:21:43;100798.59;;;8.74;nan
63287;BME280;49410;55.708;37.522;2022-10-16T07:24:13;100810.69;;;8.81;nan
63287;BME280;49410;55.708;37.522;2022-10-16T07:26:40;100803.09;;;8.85;nan
63287;BME280;49410;55.708;37.522;2022-10-16T07:29:11;100792.09;;;8.75;nan
63287;BME280;49410;55.708;37.522;2022-10-16T07:31:38;100814.09;;;8.95;nan
63287;BME280;49410;55.708;37.522;2022-10-16T07:34:05;100812.56;;;9.02;nan
63287;BME280;49410;55.708;37.522;2022-10-16T07:36:30;100812.31;;;9.05;nan
63287;BME280;49410;55.708;37.522;2022-10-16T07:38:56;100798.03;;;9.01;nan
63287;BME280;49410;55.708;37.522;2022-10-16T07:41:21;100794.25;;;9.14;nan
63287;BME280;49410;55.708;37.522;2022-10-16T07:43:48;100810.28;;;9.28;nan
63287;BME280;49410;55.708;37.522;2022-10-16T07:46:14;100803.88;;;9.39;nan
63287;BME280;49410;55.708;37.522;2022-10-16T07:48:40;100810.72;;;9.55;nan
63287;BME280;49410;55.708;37.522;2022-10-16T07:51:06;100797.00;;;9.45;nan
63287;BME280;49410;55.708;37.522;2022-10-16T07:56:02;100828.53;;;9.80;nan
63287;BME280;49410;55.708;37.522;2022-10-16T07:58:28;100812.97;;;9.81;nan
63287;BME280;49410;55.708;37.522;2022-10-16T08:00:55;100800.78;;;9.85;nan
63287;BME280;49410;55.708;37.522;2022-10-16T08:03:20;100811.91;;;10.03;nan
63287;BME280;49410;55.708;37.522;2022-10-16T08:08:16;100796.28;;;10.15;nan
63287;BME280;49410;55.708;37.522;2022-10-16T08:10:42;100813.69;;;10.23;nan
63287;BME280;49410;55.708;37.522;2022-10-16T08:13:08;100819.03;;;10.35;nan
63287;BME280;49410;55.708;37.522;2022-10-16T08:15:33;100819.22;;;10.43;nan
63287;BME280;49410;55.708;37.522;2022-10-16T08:18:03;100802.22;;;10.39;nan
63287;BME280;49410;55.708;37.522;2022-10-16T08:20:31;100804.25;;;10.47;nan
63287;BME280;49410;55.708;37.522;2022-10-16T08:22:57;100792.91;;;10.42;nan
63287;BME280;49410;55.708;37.522;2022-10-16T08:25:23;100812.47;;;10.47;nan
63287;BME280;49410;55.708;37.522;2022-10-16T08:27:49;100800.06;;;10.43;nan
63287;BME280;49410;55.708;37.522;2022-10-16T08:30:15;100779.50;;;10.39;nan
63287;BME280;49410;55.708;37.522;2022-10-16T08:32:41;100811.63;;;10.66;nan
63287;BME280;49410;55.708;37.522;2022-10-16T08:35:09;100811.78;;;10.75;nan
63287;BME280;49410;55.708;37.522;2022-10-16T08:45:14;100801.25;;;10.90;nan
63287;BME280;49410;55.708;37.522;2022-10-16T08:47:48;100803.41;;;10.96;nan
63287;BME280;49410;55.708;37.522;2022-10-16T08:50:22;100786.84;;;10.97;nan
63287;BME280;49410;55.708;37.522;2022-10-16T08:52:49;100791.72;;;10.94;nan
63287;BME280;49410;55.708;37.522;2022-10-16T08:55:31;100799.66;;;11.07;nan
63287;BME280;49410;55.708;37.522;2022-10-16T08:57:59;100779.78;;;11.05;nan
63287;BME280;49410;55.708;37.522;2022-10-16T09:00:26;100800.19;;;11.20;nan
63287;BME280;49410;55.708;37.522;2022-10-16T09:03:24;100791.84;;;11.22;nan
63287;BME280;49410;55.708;37.522;2022-10-16T09:06:08;100798.59;;;11.27;nan
63287;BME280;49410;55.708;37.522;2022-10-16T09:09:03;100800.19;;;11.30;nan
63287;BME280;49410;55.708;37.522;2022-10-16T09:16:38;100797.81;;;11.45;nan
63287;BME280;49410;55.708;37.522;2022-10-16T09:19:09;100793.78;;;11.49;nan
63287;BME280;49410;55.708;37.522;2022-10-16T09:21:41;100777.47;;;11.47;nan
63287;BME280;49410;55.708;37.522;2022-10-16T09:26:38;100778.19;;;11.59;nan
63287;BME280;49410;55.708;37.522;2022-10-16T09:29:04;100792.72;;;11.70;nan
63287;BME280;49410;55.708;37.522;2022-10-16T09:31:29;100775.69;;;11.66;nan
63287;BME280;49410;55.708;37.522;2022-10-16T09:33:58;100782.59;;;11.70;nan
63287;BME280;49410;55.708;37.522;2022-10-16T09:36:27;100788.78;;;11.72;nan
63287;BME280;49410;55.708;37.522;2022-10-16T09:39:08;100784.25;;;11.81;nan
63287;BME280;49410;55.708;37.522;2022-10-16T09:41:35;100768.88;;;11.80;nan
63287;BME280;49410;55.708;37.522;2022-10-16T09:44:04;100776.16;;;11.89;nan
63287;BME280;49410;55.708;37.522;2022-10-16T09:46:32;100775.16;;;11.90;nan
63287;BME280;49410;55.708;37.522;2022-10-16T09:49:02;100769.50;;;11.92;nan
63287;BME280;49410;55.708;37.522;2022-10-16T09:51:36;100768.63;;;12.01;nan
63287;BME280;49410;55.708;37.522;2022-10-16T09:54:14;100772.38;;;12.00;nan
63287;BME280;49410;55.708;37.522;2022-10-16T09:56:41;100774.16;;;12.19;nan
63287;BME280;49410;55.708;37.522;2022-10-16T10:01:50;100766.00;;;12.27;nan
63287;BME280;49410;55.708;37.522;2022-10-16T10:04:21;100758.97;;;12.25;nan
63287;BME280;49410;55.708;37.522;2022-10-16T10:06:54;100749.53;;;12.09;nan
63287;BME280;49410;55.708;37.522;2022-10-16T10:09:24;100765.91;;;12.19;nan
63287;BME280;49410;55.708;37.522;2022-10-16T10:11:52;100751.97;;;12.13;nan
63287;BME280;49410;55.708;37.522;2022-10-16T10:16:49;100745.22;;;12.07;nan
63287;BME280;49410;55.708;37.522;2022-10-16T10:19:23;100765.13;;;12.09;nan
63287;BME280;49410;55.708;37.522;2022-10-16T10:21:50;100755.72;;;12.11;nan
63287;BME280;49410;55.708;37.522;2022-10-16T10:24:17;100761.59;;;12.17;nan
63287;BME280;49410;55.708;37.522;2022-10-16T10:35:20;100749.81;;;12.06;nan
63287;BME280;49410;55.708;37.522;2022-10-16T10:43:35;100760.81;;;11.96;nan
63287;BME280;49410;55.708;37.522;2022-10-16T10:46:18;100750.63;;;11.99;nan
63287;BME280;49410;55.708;37.522;2022-10-16T10:54:59;100752.19;;;11.91;nan
63287;BME280;49410;55.708;37.522;2022-10-16T10:57:35;100741.22;;;12.01;nan
63287;BME280;49410;55.708;37.522;2022-10-16T11:06:19;100731.97;;;11.92;nan
63287;BME280;49410;55.708;37.522;2022-10-16T11:11:38;100725.78;;;12.00;nan
63287;BME280;49410;55.708;37.522;2022-10-16T11:14:19;100744.13;;;12.00;nan
63287;BME280;49410;55.708;37.522;2022-10-16T11:17:11;100738.00;;;11.96;nan
63287;BME280;49410;55.708;37.522;2022-10-16T11:22:37;100721.81;;;11.85;nan
63287;BME280;49410;55.708;37.522;2022-10-16T11:30:47;100733.16;;;11.90;nan
63287;BME280;49410;55.708;37.522;2022-10-16T11:38:28;100744.25;;;11.98;nan
63287;BME280;49410;55.708;37.522;2022-10-16T11:40:58;100728.22;;;12.03;nan
63287;BME280;49410;55.708;37.522;2022-10-16T11:43:38;100726.03;;;11.97;nan
63287;BME280;49410;55.708;37.522;2022-10-16T11:46:13;100731.84;;;11.94;nan
63287;BME280;49410;55.708;37.522;2022-10-16T11:49:09;100738.91;;;11.96;nan
63287;BME280;49410;55.708;37.522;2022-10-16T11:51:36;100719.56;;;11.98;nan
63287;BME280;49410;55.708;37.522;2022-10-16T11:56:54;100720.72;;;11.95;nan
63287;BME280;49410;55.708;37.522;2022-10-16T11:59:30;100725.19;;;11.96;nan
63287;BME280;49410;55.708;37.522;2022-10-16T12:04:43;100729.69;;;11.98;nan
63287;BME280;49410;55.708;37.522;2022-10-16T12:07:14;100720.88;;;11.94;nan
63287;BME280;49410;55.708;37.522;2022-10-16T12:09:43;100709.03;;;11.93;nan
63287;BME280;49410;55.708;37.522;2022-10-16T12:15:31;100718.56;;;11.99;nan
63287;BME280;49410;55.708;37.522;2022-10-16T12:17:57;100706.22;;;11.85;nan
63287;BME280;49410;55.708;37.522;2022-10-16T12:30:24;100694.44;;;11.75;nan
63287;BME280;49410;55.708;37.522;2022-10-16T12:32:58;100701.50;;;11.77;nan
63287;BME280;49410;55.708;37.522;2022-10-16T12:35:28;100702.22;;;11.79;nan
63287;BME280;49410;55.708;37.522;2022-10-16T12:38:05;100704.66;;;11.83;nan
63287;BME280;49410;55.708;37.522;2022-10-16T12:40:34;100694.75;;;11.72;nan
63287;BME280;49410;55.708;37.522;2022-10-16T12:45:46;100702.66;;;11.75;nan
63287;BME280;49410;55.708;37.522;2022-10-16T12:48:20;100694.44;;;11.75;nan
63287;BME280;49410;55.708;37.522;2022-10-16T12:50:46;100703.53;;;11.75;nan
63287;BME280;49410;55.708;37.522;2022-10-16T12:53:20;100706.88;;;11.69;nan
63287;BME280;49410;55.708;37.522;2022-10-16T12:55:59;100705.41;;;11.75;nan
63287;BME280;49410;55.708;37.522;2022-10-16T12:58:34;100701.56;;;11.68;nan
63287;BME280;49410;55.708;37.522;2022-10-16T13:04:17;100699.84;;;11.67;nan
63287;BME280;49410;55.708;37.522;2022-10-16T13:06:56;100700.56;;;11.69;nan
63287;BME280;49410;55.708;37.522;2022-10-16T13:20:35;100703.28;;;11.41;nan
63287;BME280;49410;55.708;37.522;2022-10-16T13:28:31;100697.03;;;11.21;nan
63287;BME280;49410;55.708;37.522;2022-10-16T13:30:59;100694.84;;;11.24;nan
63287;BME280;49410;55.708;37.522;2022-10-16T13:33:42;100699.75;;;11.21;nan
63287;BME280;49410;55.708;37.522;2022-10-16T13:36:33;100692.00;;;11.16;nan
63287;BME280;49410;55.708;37.522;2022-10-16T13:39:26;100697.94;;;11.11;nan
63287;BME280;49410;55.708;37.522;2022-10-16T13:42:12;100710.00;;;11.18;nan
63287;BME280;49410;55.708;37.522;2022-10-16T13:44:46;100703.66;;;11.18;nan
63287;BME280;49410;55.708;37.522;2022-10-16T13:49:42;100683.69;;;10.98;nan
63287;BME280;49410;55.708;37.522;2022-10-16T13:52:19;100686.72;;;10.95;nan
63287;BME280;49410;55.708;37.522;2022-10-16T13:54:45;100696.66;;;10.96;nan
63287;BME280;49410;55.708;37.522;2022-10-16T13:57:15;100694.25;;;10.93;nan
63287;BME280;49410;55.708;37.522;2022-10-16T13:59:40;100678.72;;;10.74;nan
63287;BME280;49410;55.708;37.522;2022-10-16T14:02:34;100680.72;;;10.81;nan
63287;BME280;49410;55.708;37.522;2022-10-16T14:05:04;100692.53;;;10.82;nan
63287;BME280;49410;55.708;37.522;2022-10-16T14:07:34;100688.81;;;10.73;nan
63287;BME280;49410;55.708;37.522;2022-10-16T14:10:06;100697.59;;;10.77;nan
63287;BME280;49410;55.708;37.522;2022-10-16T14:12:33;100687.66;;;10.66;nan
63287;BME280;49410;55.708;37.522;2022-10-16T14:14:59;100686.81;;;10.65;nan
63287;BME280;49410;55.708;37.522;2022-10-16T14:17:31;100701.66;;;10.63;nan
63287;BME280;49410;55.708;37.522;2022-10-16T14:20:00;100701.03;;;10.59;nan
63287;BME280;49410;55.708;37.522;2022-10-16T14:24:58;100690.28;;;10.48;nan
63287;BME280;49410;55.708;37.522;2022-10-16T14:27:33;100698.19;;;10.51;nan
63287;BME280;49410;55.708;37.522;2022-10-16T14:30:19;100680.78;;;10.42;nan
63287;BME280;49410;55.708;37.522;2022-10-16T14:33:02;100699.44;;;10.37;nan
63287;BME280;49410;55.708;37.522;2022-10-16T14:35:36;100700.47;;;10.36;nan
63287;BME280;49410;55.708;37.522;2022-10-16T14:38:05;100704.19;;;10.35;nan
63287;BME280;49410;55.708;37.522;2022-10-16T14:40:37;100696.84;;;10.25;nan
63287;BME280;49410;55.708;37.522;2022-10-16T14:43:04;100702.31;;;10.25;nan
63287;BME280;49410;55.708;37.522;2022-10-16T14:45:33;100695.25;;;10.13;nan
63287;BME280;49410;55.708;37.522;2022-10-16T14:48:02;100704.50;;;10.12;nan
63287;BME280;49410;55.708;37.522;2022-10-16T14:50:29;100708.81;;;10.15;nan
63287;BME280;49410;55.708;37.522;2022-10-16T14:52:55;100707.22;;;10.12;nan
63287;BME280;49410;55.708;37.522;2022-10-16T14:55:21;100703.47;;;10.03;nan
63287;BME280;49410;55.708;37.522;2022-10-16T14:57:47;100694.13;;;9.96;nan
63287;BME280;49410;55.708;37.522;2022-10-16T15:00:23;100705.06;;;9.96;nan
63287;BME280;49410;55.708;37.522;2022-10-16T15:02:49;100693.50;;;9.92;nan
63287;BME280;49410;55.708;37.522;2022-10-16T15:05:17;100714.94;;;9.87;nan
63287;BME280;49410;55.708;37.522;2022-10-16T15:07:43;100702.72;;;9.82;nan
63287;BME280;49410;55.708;37.522;2022-10-16T15:10:11;100695.38;;;9.72;nan
63287;BME280;49410;55.708;37.522;2022-10-16T15:12:36;100702.56;;;9.73;nan
63287;BME280;49410;55.708;37.522;2022-10-16T15:15:21;100717.63;;;9.77;nan
63287;BME280;49410;55.708;37.522;2022-10-16T15:17:52;100705.56;;;9.70;nan
63287;BME280;49410;55.708;37.522;2022-10-16T15:20:20;100716.34;;;9.72;nan
63287;BME280;49410;55.708;37.522;2022-10-16T15:22:46;100713.03;;;9.68;nan
63287;BME280;49410;55.708;37.522;2022-10-16T15:25:27;100710.72;;;9.63;nan